Terminal Aerodrome Forecast
Issued by NWS Shreveport, LA

Home | Current Version | Previous Version | Text Only | Print | Product List | Glossary On
Versions: 1 2 3 4 5 6 7 8 9 10 11 12 13 14 15 16 17 18 19 20
000
FTUS44 KSHV 231913 AAA
TAFTXK
TAF AMD
KTXK 231913Z 2319/2418 28008KT P6SM VCTS SCT050 SCT100CB
      TEMPO 2401/2405 VRB10G20KT 3SM -TSRA BR BKN020 OVC035CB
     FM240700 30006KT P6SM SCT015
     FM241500 31010G18KT P6SM SKC=

USA.gov is the U.S. government's official web portal to all federal, state and local government web resources and services.